Terminal Aerodrome Forecast
Issued by NWS

Home | Current Version | Previous Version | Text Only | Print | Product List | Glossary On
Versions: 1 2 3 4 5 6 7 8 9 10 11 12 13 14 15 16 17 18 19 20
695
FTUS43 KGRR 260244 AAA
TAFMKG
TAF AMD
KMKG 260244Z 2603/2624 26010KT P6SM VCSH BKN035
     FM261100 28013KT P6SM VCSH BKN035
     FM261400 28015G25KT P6SM VCSH BKN035=

USA.gov is the U.S. government's official web portal to all federal, state and local government web resources and services.